sensor_id;sensor_type;location;lat;lon;timestamp;temperature;humidity
5621;DHT22;2832;50.864;12.186;2022-11-09T00:00:44;15.60;99.90
5621;DHT22;2832;50.864;12.186;2022-11-09T00:03:12;15.70;99.90
5621;DHT22;2832;50.864;12.186;2022-11-09T00:05:40;15.50;99.90
5621;DHT22;2832;50.864;12.186;2022-11-09T00:08:09;15.40;99.90
5621;DHT22;2832;50.864;12.186;2022-11-09T00:10:38;15.50;99.90
5621;DHT22;2832;50.864;12.186;2022-11-09T00:13:06;15.40;99.90
5621;DHT22;2832;50.864;12.186;2022-11-09T00:15:35;15.50;99.90
5621;DHT22;2832;50.864;12.186;2022-11-09T00:18:02;15.50;99.90
5621;DHT22;2832;50.864;12.186;2022-11-09T00:20:30;15.60;99.90
5621;DHT22;2832;50.864;12.186;2022-11-09T00:22:58;15.60;99.90
5621;DHT22;2832;50.864;12.186;2022-11-09T00:25:30;15.60;99.90
5621;DHT22;2832;50.864;12.186;2022-11-09T00:27:59;15.70;99.90
5621;DHT22;2832;50.864;12.186;2022-11-09T00:30:27;15.70;99.90
5621;DHT22;2832;50.864;12.186;2022-11-09T00:32:54;15.70;99.90
5621;DHT22;2832;50.864;12.186;2022-11-09T00:35:23;15.70;99.90
5621;DHT22;2832;50.864;12.186;2022-11-09T00:37:51;15.60;99.90
5621;DHT22;2832;50.864;12.186;2022-11-09T00:40:20;15.60;99.90
5621;DHT22;2832;50.864;12.186;2022-11-09T00:42:48;15.50;99.90
5621;DHT22;2832;50.864;12.186;2022-11-09T00:45:18;15.40;99.90
5621;DHT22;2832;50.864;12.186;2022-11-09T00:47:46;15.50;99.90
5621;DHT22;2832;50.864;12.186;2022-11-09T00:50:14;15.60;99.90
5621;DHT22;2832;50.864;12.186;2022-11-09T00:52:42;15.60;99.90
5621;DHT22;2832;50.864;12.186;2022-11-09T00:55:10;15.60;99.90
5621;DHT22;2832;50.864;12.186;2022-11-09T00:57:37;15.50;99.90
5621;DHT22;2832;50.864;12.186;2022-11-09T01:00:06;15.50;99.90
5621;DHT22;2832;50.864;12.186;2022-11-09T01:02:36;15.60;99.90
5621;DHT22;2832;50.864;12.186;2022-11-09T01:05:04;15.60;99.90
5621;DHT22;2832;50.864;12.186;2022-11-09T01:07:32;15.60;99.90
5621;DHT22;2832;50.864;12.186;2022-11-09T01:10:00;15.50;99.90
5621;DHT22;2832;50.864;12.186;2022-11-09T01:12:30;15.50;99.90
5621;DHT22;2832;50.864;12.186;2022-11-09T01:14:58;15.50;99.90
5621;DHT22;2832;50.864;12.186;2022-11-09T01:17:25;15.60;99.90
5621;DHT22;2832;50.864;12.186;2022-11-09T01:19:54;15.50;99.90
5621;DHT22;2832;50.864;12.186;2022-11-09T01:22:22;15.60;99.90
5621;DHT22;2832;50.864;12.186;2022-11-09T01:24:50;15.50;99.90
5621;DHT22;2832;50.864;12.186;2022-11-09T01:27:19;15.50;99.90
5621;DHT22;2832;50.864;12.186;2022-11-09T01:29:47;15.50;99.90
5621;DHT22;2832;50.864;12.186;2022-11-09T01:32:16;15.50;99.90
5621;DHT22;2832;50.864;12.186;2022-11-09T01:34:43;15.60;99.90
5621;DHT22;2832;50.864;12.186;2022-11-09T01:37:13;15.60;99.90
5621;DHT22;2832;50.864;12.186;2022-11-09T01:39:42;15.50;99.90
5621;DHT22;2832;50.864;12.186;2022-11-09T01:42:10;15.60;99.90
5621;DHT22;2832;50.864;12.186;2022-11-09T01:44:38;15.60;99.90
5621;DHT22;2832;50.864;12.186;2022-11-09T01:47:11;15.70;99.90
5621;DHT22;2832;50.864;12.186;2022-11-09T01:49:44;15.70;99.90
5621;DHT22;2832;50.864;12.186;2022-11-09T01:52:18;15.70;99.90
5621;DHT22;2832;50.864;12.186;2022-11-09T01:54:52;15.70;99.90
5621;DHT22;2832;50.864;12.186;2022-11-09T01:57:25;15.70;99.90
5621;DHT22;2832;50.864;12.186;2022-11-09T01:59:56;15.70;99.90
5621;DHT22;2832;50.864;12.186;2022-11-09T02:02:25;15.70;99.90
5621;DHT22;2832;50.864;12.186;2022-11-09T02:04:55;15.70;99.90
5621;DHT22;2832;50.864;12.186;2022-11-09T02:07:28;15.70;99.90
5621;DHT22;2832;50.864;12.186;2022-11-09T02:10:03;15.70;99.90
5621;DHT22;2832;50.864;12.186;2022-11-09T02:12:35;15.60;99.90
5621;DHT22;2832;50.864;12.186;2022-11-09T02:15:06;15.50;99.90
5621;DHT22;2832;50.864;12.186;2022-11-09T02:17:35;15.50;99.90
5621;DHT22;2832;50.864;12.186;2022-11-09T02:20:10;15.30;99.90
5621;DHT22;2832;50.864;12.186;2022-11-09T02:22:39;15.40;99.90
5621;DHT22;2832;50.864;12.186;2022-11-09T02:25:08;15.50;99.90
5621;DHT22;2832;50.864;12.186;2022-11-09T02:27:37;15.60;99.90
5621;DHT22;2832;50.864;12.186;2022-11-09T02:30:07;15.60;99.90
5621;DHT22;2832;50.864;12.186;2022-11-09T02:32:35;15.50;99.90
5621;DHT22;2832;50.864;12.186;2022-11-09T02:35:03;15.60;99.90
5621;DHT22;2832;50.864;12.186;2022-11-09T02:37:36;15.70;99.90
5621;DHT22;2832;50.864;12.186;2022-11-09T02:40:08;15.60;99.90
5621;DHT22;2832;50.864;12.186;2022-11-09T02:42:38;15.60;99.90
5621;DHT22;2832;50.864;12.186;2022-11-09T02:45:07;15.60;99.90
5621;DHT22;2832;50.864;12.186;2022-11-09T02:47:35;15.60;99.90
5621;DHT22;2832;50.864;12.186;2022-11-09T02:50:05;15.60;99.90
5621;DHT22;2832;50.864;12.186;2022-11-09T02:52:34;15.60;99.90
5621;DHT22;2832;50.864;12.186;2022-11-09T02:55:01;15.60;99.90
5621;DHT22;2832;50.864;12.186;2022-11-09T02:57:30;15.60;99.90
5621;DHT22;2832;50.864;12.186;2022-11-09T02:59:57;15.70;99.90
5621;DHT22;2832;50.864;12.186;2022-11-09T03:02:25;15.60;99.90
5621;DHT22;2832;50.864;12.186;2022-11-09T03:04:53;15.50;99.90
5621;DHT22;2832;50.864;12.186;2022-11-09T03:07:21;15.50;99.90
5621;DHT22;2832;50.864;12.186;2022-11-09T03:09:51;15.50;99.90
5621;DHT22;2832;50.864;12.186;2022-11-09T03:12:19;15.50;99.90
5621;DHT22;2832;50.864;12.186;2022-11-09T03:14:57;15.50;99.90
5621;DHT22;2832;50.864;12.186;2022-11-09T03:17:26;15.50;99.90
5621;DHT22;2832;50.864;12.186;2022-11-09T03:20:08;15.30;99.90
5621;DHT22;2832;50.864;12.186;2022-11-09T03:22:37;15.30;99.90
5621;DHT22;2832;50.864;12.186;2022-11-09T03:25:08;15.40;99.90
5621;DHT22;2832;50.864;12.186;2022-11-09T03:27:36;15.40;99.90
5621;DHT22;2832;50.864;12.186;2022-11-09T03:30:17;15.40;99.90
5621;DHT22;2832;50.864;12.186;2022-11-09T03:32:45;15.40;99.90
5621;DHT22;2832;50.864;12.186;2022-11-09T03:35:13;15.40;99.90
5621;DHT22;2832;50.864;12.186;2022-11-09T03:37:42;15.40;99.90
5621;DHT22;2832;50.864;12.186;2022-11-09T03:40:28;15.40;99.90
5621;DHT22;2832;50.864;12.186;2022-11-09T03:42:57;15.50;99.90
5621;DHT22;2832;50.864;12.186;2022-11-09T03:45:25;15.50;99.90
5621;DHT22;2832;50.864;12.186;2022-11-09T03:47:54;15.50;99.90
5621;DHT22;2832;50.864;12.186;2022-11-09T03:50:33;15.60;99.90
5621;DHT22;2832;50.864;12.186;2022-11-09T03:53:01;15.60;99.90
5621;DHT22;2832;50.864;12.186;2022-11-09T03:55:30;15.50;99.90
5621;DHT22;2832;50.864;12.186;2022-11-09T03:57:58;15.50;99.90
5621;DHT22;2832;50.864;12.186;2022-11-09T04:00:31;15.50;99.90
5621;DHT22;2832;50.864;12.186;2022-11-09T04:02:59;15.50;99.90
5621;DHT22;2832;50.864;12.186;2022-11-09T04:05:27;15.50;99.90
5621;DHT22;2832;50.864;12.186;2022-11-09T04:07:56;15.40;99.90
5621;DHT22;2832;50.864;12.186;2022-11-09T04:10:25;15.50;99.90
5621;DHT22;2832;50.864;12.186;2022-11-09T04:12:57;15.40;99.90
5621;DHT22;2832;50.864;12.186;2022-11-09T04:15:25;15.40;99.90
5621;DHT22;2832;50.864;12.186;2022-11-09T04:17:57;15.40;99.90
5621;DHT22;2832;50.864;12.186;2022-11-09T04:20:25;15.40;99.90
5621;DHT22;2832;50.864;12.186;2022-11-09T04:22:58;15.40;99.90
5621;DHT22;2832;50.864;12.186;2022-11-09T04:25:25;15.30;99.90
5621;DHT22;2832;50.864;12.186;2022-11-09T04:27:54;15.20;99.90
5621;DHT22;2832;50.864;12.186;2022-11-09T04:30:24;15.20;99.90
5621;DHT22;2832;50.864;12.186;2022-11-09T04:32:52;15.30;99.90
5621;DHT22;2832;50.864;12.186;2022-11-09T04:35:21;15.30;99.90
5621;DHT22;2832;50.864;12.186;2022-11-09T04:37:53;15.40;99.90
5621;DHT22;2832;50.864;12.186;2022-11-09T04:40:21;15.40;99.90
5621;DHT22;2832;50.864;12.186;2022-11-09T04:42:49;15.40;99.90
5621;DHT22;2832;50.864;12.186;2022-11-09T04:45:16;15.30;99.90
5621;DHT22;2832;50.864;12.186;2022-11-09T04:47:46;15.30;99.90
5621;DHT22;2832;50.864;12.186;2022-11-09T04:50:14;15.40;99.90
5621;DHT22;2832;50.864;12.186;2022-11-09T04:52:42;15.40;99.90
5621;DHT22;2832;50.864;12.186;2022-11-09T04:55:09;15.30;99.90
5621;DHT22;2832;50.864;12.186;2022-11-09T04:57:38;15.40;99.90
5621;DHT22;2832;50.864;12.186;2022-11-09T05:00:07;15.40;99.90
5621;DHT22;2832;50.864;12.186;2022-11-09T05:02:36;15.30;99.90
5621;DHT22;2832;50.864;12.186;2022-11-09T05:05:06;15.40;99.90
5621;DHT22;2832;50.864;12.186;2022-11-09T05:07:34;15.40;99.90
5621;DHT22;2832;50.864;12.186;2022-11-09T05:10:01;15.40;99.90
5621;DHT22;2832;50.864;12.186;2022-11-09T05:12:29;15.40;99.90
5621;DHT22;2832;50.864;12.186;2022-11-09T05:15:00;15.50;99.90
5621;DHT22;2832;50.864;12.186;2022-11-09T05:17:28;15.50;99.90
5621;DHT22;2832;50.864;12.186;2022-11-09T05:19:55;15.40;99.90
5621;DHT22;2832;50.864;12.186;2022-11-09T05:22:24;15.40;99.90
5621;DHT22;2832;50.864;12.186;2022-11-09T05:25:10;15.50;99.90
5621;DHT22;2832;50.864;12.186;2022-11-09T05:27:41;15.40;99.90
5621;DHT22;2832;50.864;12.186;2022-11-09T05:30:09;15.30;99.90
5621;DHT22;2832;50.864;12.186;2022-11-09T05:32:38;15.40;99.90
5621;DHT22;2832;50.864;12.186;2022-11-09T05:35:07;15.30;99.90
5621;DHT22;2832;50.864;12.186;2022-11-09T05:37:39;15.30;99.90
5621;DHT22;2832;50.864;12.186;2022-11-09T05:40:09;15.30;99.90
5621;DHT22;2832;50.864;12.186;2022-11-09T05:42:38;15.30;99.90
5621;DHT22;2832;50.864;12.186;2022-11-09T05:45:08;15.20;99.90
5621;DHT22;2832;50.864;12.186;2022-11-09T05:47:36;15.20;99.90
5621;DHT22;2832;50.864;12.186;2022-11-09T05:50:07;15.30;99.90
5621;DHT22;2832;50.864;12.186;2022-11-09T05:52:38;15.30;99.90
5621;DHT22;2832;50.864;12.186;2022-11-09T05:55:07;15.40;99.90
5621;DHT22;2832;50.864;12.186;2022-11-09T05:57:35;15.40;99.90
5621;DHT22;2832;50.864;12.186;2022-11-09T06:00:04;15.40;99.90
5621;DHT22;2832;50.864;12.186;2022-11-09T06:02:32;15.40;99.90
5621;DHT22;2832;50.864;12.186;2022-11-09T06:05:00;15.40;99.90
5621;DHT22;2832;50.864;12.186;2022-11-09T06:07:28;15.40;99.90
5621;DHT22;2832;50.864;12.186;2022-11-09T06:09:57;15.40;99.90
5621;DHT22;2832;50.864;12.186;2022-11-09T06:12:25;15.30;99.90
5621;DHT22;2832;50.864;12.186;2022-11-09T06:14:54;15.40;99.90
5621;DHT22;2832;50.864;12.186;2022-11-09T06:17:22;15.40;99.90
5621;DHT22;2832;50.864;12.186;2022-11-09T06:19:50;15.40;99.90
5621;DHT22;2832;50.864;12.186;2022-11-09T06:22:17;15.40;99.90
5621;DHT22;2832;50.864;12.186;2022-11-09T06:24:45;15.40;99.90
5621;DHT22;2832;50.864;12.186;2022-11-09T06:27:16;15.40;99.90
5621;DHT22;2832;50.864;12.186;2022-11-09T06:29:44;15.30;99.90
5621;DHT22;2832;50.864;12.186;2022-11-09T06:32:12;15.40;99.90
5621;DHT22;2832;50.864;12.186;2022-11-09T06:34:41;15.40;99.90
5621;DHT22;2832;50.864;12.186;2022-11-09T06:37:09;15.40;99.90
5621;DHT22;2832;50.864;12.186;2022-11-09T06:39:36;15.40;99.90
5621;DHT22;2832;50.864;12.186;2022-11-09T06:42:04;15.30;99.90
5621;DHT22;2832;50.864;12.186;2022-11-09T06:44:33;15.30;99.90
5621;DHT22;2832;50.864;12.186;2022-11-09T06:47:01;15.30;99.90
5621;DHT22;2832;50.864;12.186;2022-11-09T06:49:28;15.30;99.90
5621;DHT22;2832;50.864;12.186;2022-11-09T06:51:56;15.30;99.90
5621;DHT22;2832;50.864;12.186;2022-11-09T06:54:27;15.30;99.90
5621;DHT22;2832;50.864;12.186;2022-11-09T06:56:56;15.20;99.90
5621;DHT22;2832;50.864;12.186;2022-11-09T06:59:25;15.30;99.90
5621;DHT22;2832;50.864;12.186;2022-11-09T07:01:55;15.30;99.90
5621;DHT22;2832;50.864;12.186;2022-11-09T07:04:23;15.30;99.90
5621;DHT22;2832;50.864;12.186;2022-11-09T07:06:51;15.40;99.90
5621;DHT22;2832;50.864;12.186;2022-11-09T07:09:19;15.40;99.90
5621;DHT22;2832;50.864;12.186;2022-11-09T07:11:47;15.40;99.90
5621;DHT22;2832;50.864;12.186;2022-11-09T07:14:15;15.40;99.90
5621;DHT22;2832;50.864;12.186;2022-11-09T07:16:42;15.40;99.90
5621;DHT22;2832;50.864;12.186;2022-11-09T07:19:11;15.30;99.90
5621;DHT22;2832;50.864;12.186;2022-11-09T07:21:39;15.20;99.90
5621;DHT22;2832;50.864;12.186;2022-11-09T07:24:08;15.20;99.90
5621;DHT22;2832;50.864;12.186;2022-11-09T07:26:35;15.20;99.90
5621;DHT22;2832;50.864;12.186;2022-11-09T07:29:03;15.30;99.90
5621;DHT22;2832;50.864;12.186;2022-11-09T07:31:33;15.30;99.90
5621;DHT22;2832;50.864;12.186;2022-11-09T07:34:01;15.30;99.90
5621;DHT22;2832;50.864;12.186;2022-11-09T07:36:31;15.20;99.90
5621;DHT22;2832;50.864;12.186;2022-11-09T07:39:01;15.20;99.90
5621;DHT22;2832;50.864;12.186;2022-11-09T07:41:29;15.30;99.90
5621;DHT22;2832;50.864;12.186;2022-11-09T07:43:57;15.30;99.90
5621;DHT22;2832;50.864;12.186;2022-11-09T07:46:24;15.30;99.90
5621;DHT22;2832;50.864;12.186;2022-11-09T07:48:52;15.30;99.90
5621;DHT22;2832;50.864;12.186;2022-11-09T07:51:20;15.30;99.90
5621;DHT22;2832;50.864;12.186;2022-11-09T07:53:50;15.30;99.90
5621;DHT22;2832;50.864;12.186;2022-11-09T07:56:18;15.30;99.90
5621;DHT22;2832;50.864;12.186;2022-11-09T07:58:48;15.30;99.90
5621;DHT22;2832;50.864;12.186;2022-11-09T08:01:16;15.30;99.90
5621;DHT22;2832;50.864;12.186;2022-11-09T08:03:43;15.30;99.90
5621;DHT22;2832;50.864;12.186;2022-11-09T08:06:10;15.30;99.90
5621;DHT22;2832;50.864;12.186;2022-11-09T08:08:40;15.30;99.90
5621;DHT22;2832;50.864;12.186;2022-11-09T08:11:12;15.20;99.90
5621;DHT22;2832;50.864;12.186;2022-11-09T08:13:40;15.20;99.90
5621;DHT22;2832;50.864;12.186;2022-11-09T08:16:07;15.30;99.90
5621;DHT22;2832;50.864;12.186;2022-11-09T08:18:35;15.30;99.90
5621;DHT22;2832;50.864;12.186;2022-11-09T08:21:04;15.40;99.90
5621;DHT22;2832;50.864;12.186;2022-11-09T08:23:32;15.30;99.90
5621;DHT22;2832;50.864;12.186;2022-11-09T08:26:01;15.30;99.90
5621;DHT22;2832;50.864;12.186;2022-11-09T08:28:33;15.20;99.90
5621;DHT22;2832;50.864;12.186;2022-11-09T08:31:02;15.20;99.90
5621;DHT22;2832;50.864;12.186;2022-11-09T08:33:35;15.20;99.90
5621;DHT22;2832;50.864;12.186;2022-11-09T08:36:08;15.20;99.90
5621;DHT22;2832;50.864;12.186;2022-11-09T08:38:35;15.30;99.90
5621;DHT22;2832;50.864;12.186;2022-11-09T08:41:03;15.30;99.90
5621;DHT22;2832;50.864;12.186;2022-11-09T08:43:35;15.30;99.90
5621;DHT22;2832;50.864;12.186;2022-11-09T08:46:02;15.30;99.90
5621;DHT22;2832;50.864;12.186;2022-11-09T08:48:30;15.20;99.90
5621;DHT22;2832;50.864;12.186;2022-11-09T08:50:59;15.20;99.90
5621;DHT22;2832;50.864;12.186;2022-11-09T08:53:28;15.20;99.90
5621;DHT22;2832;50.864;12.186;2022-11-09T08:55:56;15.20;99.90
5621;DHT22;2832;50.864;12.186;2022-11-09T08:58:25;15.10;99.90
5621;DHT22;2832;50.864;12.186;2022-11-09T09:00:54;15.10;99.90
5621;DHT22;2832;50.864;12.186;2022-11-09T09:03:21;15.10;99.90
5621;DHT22;2832;50.864;12.186;2022-11-09T09:05:49;15.20;99.90
5621;DHT22;2832;50.864;12.186;2022-11-09T09:08:17;15.20;99.90
5621;DHT22;2832;50.864;12.186;2022-11-09T09:10:48;15.20;99.90
5621;DHT22;2832;50.864;12.186;2022-11-09T09:13:15;15.20;99.90
5621;DHT22;2832;50.864;12.186;2022-11-09T09:15:45;15.20;99.90
5621;DHT22;2832;50.864;12.186;2022-11-09T09:18:14;15.20;99.90
5621;DHT22;2832;50.864;12.186;2022-11-09T09:20:42;15.10;99.90
5621;DHT22;2832;50.864;12.186;2022-11-09T09:23:10;15.10;99.90
5621;DHT22;2832;50.864;12.186;2022-11-09T09:25:40;15.10;99.90
5621;DHT22;2832;50.864;12.186;2022-11-09T09:28:07;15.10;99.90
5621;DHT22;2832;50.864;12.186;2022-11-09T09:30:35;15.20;99.90
5621;DHT22;2832;50.864;12.186;2022-11-09T09:33:03;15.10;99.90
5621;DHT22;2832;50.864;12.186;2022-11-09T09:35:32;15.10;99.90
5621;DHT22;2832;50.864;12.186;2022-11-09T09:38:00;15.10;99.90
5621;DHT22;2832;50.864;12.186;2022-11-09T09:40:32;15.10;99.90
5621;DHT22;2832;50.864;12.186;2022-11-09T09:43:03;15.10;99.90
5621;DHT22;2832;50.864;12.186;2022-11-09T09:45:33;15.10;99.90
5621;DHT22;2832;50.864;12.186;2022-11-09T09:48:07;15.20;99.90
5621;DHT22;2832;50.864;12.186;2022-11-09T09:50:46;15.20;99.90
5621;DHT22;2832;50.864;12.186;2022-11-09T09:53:22;15.20;99.90
5621;DHT22;2832;50.864;12.186;2022-11-09T09:56:05;15.10;99.90
5621;DHT22;2832;50.864;12.186;2022-11-09T09:58:43;15.00;99.90
5621;DHT22;2832;50.864;12.186;2022-11-09T10:01:15;15.10;99.90
5621;DHT22;2832;50.864;12.186;2022-11-09T10:03:44;15.20;99.90
5621;DHT22;2832;50.864;12.186;2022-11-09T10:06:39;15.20;99.90
5621;DHT22;2832;50.864;12.186;2022-11-09T10:09:17;15.20;99.90
5621;DHT22;2832;50.864;12.186;2022-11-09T10:11:58;15.10;99.90
5621;DHT22;2832;50.864;12.186;2022-11-09T10:14:56;15.10;99.90
5621;DHT22;2832;50.864;12.186;2022-11-09T10:17:36;15.00;99.90
5621;DHT22;2832;50.864;12.186;2022-11-09T10:20:18;14.90;99.90
5621;DHT22;2832;50.864;12.186;2022-11-09T10:22:58;15.00;99.90
5621;DHT22;2832;50.864;12.186;2022-11-09T10:25:32;14.90;99.90
5621;DHT22;2832;50.864;12.186;2022-11-09T10:28:08;14.90;99.90
5621;DHT22;2832;50.864;12.186;2022-11-09T10:30:36;14.90;99.90
5621;DHT22;2832;50.864;12.186;2022-11-09T10:33:13;15.00;99.90
5621;DHT22;2832;50.864;12.186;2022-11-09T10:35:45;15.00;99.90
5621;DHT22;2832;50.864;12.186;2022-11-09T10:38:21;15.10;99.90
5621;DHT22;2832;50.864;12.186;2022-11-09T10:40:52;15.10;99.90
5621;DHT22;2832;50.864;12.186;2022-11-09T10:43:22;15.10;99.90
5621;DHT22;2832;50.864;12.186;2022-11-09T10:45:58;15.10;99.90
5621;DHT22;2832;50.864;12.186;2022-11-09T10:48:32;15.10;99.90
5621;DHT22;2832;50.864;12.186;2022-11-09T10:51:02;15.20;99.90
5621;DHT22;2832;50.864;12.186;2022-11-09T10:53:33;15.20;99.90
5621;DHT22;2832;50.864;12.186;2022-11-09T10:56:10;15.10;99.90
5621;DHT22;2832;50.864;12.186;2022-11-09T10:58:46;15.10;99.90
5621;DHT22;2832;50.864;12.186;2022-11-09T11:01:18;15.00;99.90
5621;DHT22;2832;50.864;12.186;2022-11-09T11:03:49;15.00;99.90
5621;DHT22;2832;50.864;12.186;2022-11-09T11:06:27;15.10;99.90
5621;DHT22;2832;50.864;12.186;2022-11-09T11:09:18;15.10;99.90
5621;DHT22;2832;50.864;12.186;2022-11-09T11:11:46;15.10;99.90
5621;DHT22;2832;50.864;12.186;2022-11-09T11:14:16;15.20;99.90
5621;DHT22;2832;50.864;12.186;2022-11-09T11:16:45;15.20;99.90
5621;DHT22;2832;50.864;12.186;2022-11-09T11:19:31;15.10;99.90
5621;DHT22;2832;50.864;12.186;2022-11-09T11:22:19;15.20;99.90
5621;DHT22;2832;50.864;12.186;2022-11-09T11:24:56;15.10;99.90
5621;DHT22;2832;50.864;12.186;2022-11-09T11:27:31;15.20;99.90
5621;DHT22;2832;50.864;12.186;2022-11-09T11:30:09;15.20;99.90
5621;DHT22;2832;50.864;12.186;2022-11-09T11:32:38;15.20;99.90
5621;DHT22;2832;50.864;12.186;2022-11-09T11:35:13;15.20;99.90
5621;DHT22;2832;50.864;12.186;2022-11-09T11:37:50;15.20;99.90
5621;DHT22;2832;50.864;12.186;2022-11-09T11:40:28;15.30;99.90
5621;DHT22;2832;50.864;12.186;2022-11-09T11:43:10;15.20;99.90
5621;DHT22;2832;50.864;12.186;2022-11-09T11:45:48;15.20;99.90
5621;DHT22;2832;50.864;12.186;2022-11-09T11:48:30;15.30;99.90
5621;DHT22;2832;50.864;12.186;2022-11-09T11:51:08;15.30;99.90
5621;DHT22;2832;50.864;12.186;2022-11-09T11:54:02;15.30;99.90
5621;DHT22;2832;50.864;12.186;2022-11-09T11:56:36;15.30;99.90
5621;DHT22;2832;50.864;12.186;2022-11-09T11:59:32;15.20;99.90
5621;DHT22;2832;50.864;12.186;2022-11-09T12:05:40;15.30;99.90
5621;DHT22;2832;50.864;12.186;2022-11-09T12:08:16;15.30;99.90
5621;DHT22;2832;50.864;12.186;2022-11-09T12:10:53;15.30;99.90
5621;DHT22;2832;50.864;12.186;2022-11-09T12:13:45;15.30;99.90
5621;DHT22;2832;50.864;12.186;2022-11-09T12:16:21;15.30;99.90
5621;DHT22;2832;50.864;12.186;2022-11-09T12:19:01;15.40;99.90
5621;DHT22;2832;50.864;12.186;2022-11-09T12:21:35;15.30;99.90
5621;DHT22;2832;50.864;12.186;2022-11-09T12:24:18;15.30;99.90
5621;DHT22;2832;50.864;12.186;2022-11-09T12:26:59;15.30;99.90
5621;DHT22;2832;50.864;12.186;2022-11-09T12:29:42;15.40;99.90
5621;DHT22;2832;50.864;12.186;2022-11-09T12:32:21;15.40;99.90
5621;DHT22;2832;50.864;12.186;2022-11-09T12:34:59;15.40;99.90
5621;DHT22;2832;50.864;12.186;2022-11-09T12:37:33;15.30;99.90
5621;DHT22;2832;50.864;12.186;2022-11-09T12:40:11;15.40;99.90
5621;DHT22;2832;50.864;12.186;2022-11-09T12:42:45;15.40;99.90
5621;DHT22;2832;50.864;12.186;2022-11-09T12:45:21;15.40;99.90
5621;DHT22;2832;50.864;12.186;2022-11-09T12:47:55;15.30;99.90
5621;DHT22;2832;50.864;12.186;2022-11-09T12:50:25;15.40;99.90
5621;DHT22;2832;50.864;12.186;2022-11-09T12:52:55;15.40;99.90
5621;DHT22;2832;50.864;12.186;2022-11-09T12:55:27;15.40;99.90
5621;DHT22;2832;50.864;12.186;2022-11-09T12:57:58;15.40;99.90
5621;DHT22;2832;50.864;12.186;2022-11-09T13:00:56;15.30;99.90
5621;DHT22;2832;50.864;12.186;2022-11-09T13:03:26;15.30;99.90
5621;DHT22;2832;50.864;12.186;2022-11-09T13:06:13;15.30;99.90
5621;DHT22;2832;50.864;12.186;2022-11-09T13:08:54;15.40;99.90
5621;DHT22;2832;50.864;12.186;2022-11-09T13:11:32;15.40;99.90
5621;DHT22;2832;50.864;12.186;2022-11-09T13:14:34;15.40;99.90
5621;DHT22;2832;50.864;12.186;2022-11-09T13:20:38;15.40;99.90
5621;DHT22;2832;50.864;12.186;2022-11-09T13:23:31;15.40;99.90
5621;DHT22;2832;50.864;12.186;2022-11-09T13:26:01;15.40;99.90
5621;DHT22;2832;50.864;12.186;2022-11-09T13:29:06;15.40;99.90
5621;DHT22;2832;50.864;12.186;2022-11-09T13:34:48;15.40;99.90
5621;DHT22;2832;50.864;12.186;2022-11-09T13:37:52;15.40;99.90
5621;DHT22;2832;50.864;12.186;2022-11-09T13:40:42;15.40;99.90
5621;DHT22;2832;50.864;12.186;2022-11-09T13:43:20;15.40;99.90
5621;DHT22;2832;50.864;12.186;2022-11-09T13:45:50;15.40;99.90
5621;DHT22;2832;50.864;12.186;2022-11-09T13:48:34;15.40;99.90
5621;DHT22;2832;50.864;12.186;2022-11-09T13:51:07;15.40;99.90
5621;DHT22;2832;50.864;12.186;2022-11-09T13:54:01;15.50;99.90
5621;DHT22;2832;50.864;12.186;2022-11-09T13:56:32;15.50;99.90
5621;DHT22;2832;50.864;12.186;2022-11-09T13:59:08;15.50;99.90
5621;DHT22;2832;50.864;12.186;2022-11-09T14:01:46;15.40;99.90
5621;DHT22;2832;50.864;12.186;2022-11-09T14:04:23;15.40;99.90
5621;DHT22;2832;50.864;12.186;2022-11-09T14:07:00;15.40;99.90
5621;DHT22;2832;50.864;12.186;2022-11-09T14:09:37;15.40;99.90
5621;DHT22;2832;50.864;12.186;2022-11-09T14:15:20;15.50;99.90
5621;DHT22;2832;50.864;12.186;2022-11-09T14:17:57;15.50;99.90
5621;DHT22;2832;50.864;12.186;2022-11-09T14:20:36;15.50;99.90
5621;DHT22;2832;50.864;12.186;2022-11-09T14:23:14;15.50;99.90
5621;DHT22;2832;50.864;12.186;2022-11-09T14:25:44;15.50;99.90
5621;DHT22;2832;50.864;12.186;2022-11-09T14:28:20;15.50;99.90
5621;DHT22;2832;50.864;12.186;2022-11-09T14:30:48;15.50;99.90
5621;DHT22;2832;50.864;12.186;2022-11-09T14:33:22;15.50;99.90
5621;DHT22;2832;50.864;12.186;2022-11-09T14:35:52;15.60;99.90
5621;DHT22;2832;50.864;12.186;2022-11-09T14:38:23;15.50;99.90
5621;DHT22;2832;50.864;12.186;2022-11-09T14:40:53;15.60;99.90
5621;DHT22;2832;50.864;12.186;2022-11-09T14:43:28;15.60;99.90
5621;DHT22;2832;50.864;12.186;2022-11-09T14:45:59;15.60;99.90
5621;DHT22;2832;50.864;12.186;2022-11-09T14:48:28;15.60;99.90
5621;DHT22;2832;50.864;12.186;2022-11-09T14:51:00;15.60;99.90
5621;DHT22;2832;50.864;12.186;2022-11-09T14:53:31;15.60;99.90
5621;DHT22;2832;50.864;12.186;2022-11-09T14:56:03;15.60;99.90
5621;DHT22;2832;50.864;12.186;2022-11-09T14:58:34;15.50;99.90
5621;DHT22;2832;50.864;12.186;2022-11-09T15:01:08;15.60;99.90
5621;DHT22;2832;50.864;12.186;2022-11-09T15:03:39;15.60;99.90
5621;DHT22;2832;50.864;12.186;2022-11-09T15:06:10;15.60;99.90
5621;DHT22;2832;50.864;12.186;2022-11-09T15:08:49;15.60;99.90
5621;DHT22;2832;50.864;12.186;2022-11-09T15:11:20;15.60;99.90
5621;DHT22;2832;50.864;12.186;2022-11-09T15:14:09;15.60;99.90
5621;DHT22;2832;50.864;12.186;2022-11-09T15:16:37;15.60;99.90
5621;DHT22;2832;50.864;12.186;2022-11-09T15:19:04;15.60;99.90
5621;DHT22;2832;50.864;12.186;2022-11-09T15:21:34;15.60;99.90
5621;DHT22;2832;50.864;12.186;2022-11-09T15:24:12;15.70;99.90
5621;DHT22;2832;50.864;12.186;2022-11-09T15:26:46;15.70;99.90
5621;DHT22;2832;50.864;12.186;2022-11-09T15:29:36;15.70;99.90
5621;DHT22;2832;50.864;12.186;2022-11-09T15:32:13;15.70;99.90
5621;DHT22;2832;50.864;12.186;2022-11-09T15:34:51;15.70;99.90
5621;DHT22;2832;50.864;12.186;2022-11-09T15:37:23;15.60;99.90
5621;DHT22;2832;50.864;12.186;2022-11-09T15:39:51;15.70;99.90
5621;DHT22;2832;50.864;12.186;2022-11-09T15:42:20;15.70;99.90
5621;DHT22;2832;50.864;12.186;2022-11-09T15:44:53;15.70;99.90
5621;DHT22;2832;50.864;12.186;2022-11-09T15:47:23;15.70;99.90
5621;DHT22;2832;50.864;12.186;2022-11-09T15:49:53;15.80;99.90
5621;DHT22;2832;50.864;12.186;2022-11-09T15:52:21;15.70;99.90
5621;DHT22;2832;50.864;12.186;2022-11-09T15:54:49;15.70;99.90
5621;DHT22;2832;50.864;12.186;2022-11-09T15:57:19;15.70;99.90
5621;DHT22;2832;50.864;12.186;2022-11-09T15:59:49;15.60;99.90
5621;DHT22;2832;50.864;12.186;2022-11-09T16:02:17;15.70;99.90
5621;DHT22;2832;50.864;12.186;2022-11-09T16:04:45;15.70;99.90
5621;DHT22;2832;50.864;12.186;2022-11-09T16:07:14;15.70;99.90
5621;DHT22;2832;50.864;12.186;2022-11-09T16:09:43;15.70;99.90
5621;DHT22;2832;50.864;12.186;2022-11-09T16:12:11;15.70;99.90
5621;DHT22;2832;50.864;12.186;2022-11-09T16:14:40;15.70;99.90
5621;DHT22;2832;50.864;12.186;2022-11-09T16:17:08;15.80;99.90
5621;DHT22;2832;50.864;12.186;2022-11-09T16:19:36;15.70;99.90
5621;DHT22;2832;50.864;12.186;2022-11-09T16:22:05;15.80;99.90
5621;DHT22;2832;50.864;12.186;2022-11-09T16:24:33;15.70;99.90
5621;DHT22;2832;50.864;12.186;2022-11-09T16:27:01;15.80;99.90